Time;durP1;ratioP1;P1;durP2;ratioP2;P2;SDS_P1;SDS_P2;PMS_P1;PMS_P2;Temp;Humidity;BMP_temperature;BMP_pressure;BME280_temperature;BME280_humidity;BME280_pressure;Samples;Min_cycle;Max_cycle;Signal;HPM_P1;HPM_P2
2023/08/10 00:01:45;;;;;;;4.20;1.50;;;;;;;;;;5151144;27;20027;-72
2023/08/10 00:04:11;;;;;;;4.18;1.73;;;;;;;;;;5150783;27;20030;-71
2023/08/10 00:06:39;;;;;;;7.75;1.95;;;;;;;;;;5151157;27;20491;-71
2023/08/10 00:09:07;;;;;;;5.28;1.52;;;;;;;;;;5151220;27;20462;-72
2023/08/10 00:11:33;;;;;;;5.38;1.70;;;;;;;;;;5151048;27;20031;-71
2023/08/10 00:13:59;;;;;;;5.88;1.95;;;;;;;;;;5150282;27;20161;-72
2023/08/10 00:16:25;;;;;;;4.88;1.50;;;;;;;;;;5149692;27;20026;-71
2023/08/10 00:18:51;;;;;;;7.38;1.88;;;;;;;;;;5150972;27;20045;-71
2023/08/10 00:21:17;;;;;;;9.10;1.80;;;;;;;;;;5150852;27;20034;-71
2023/08/10 00:23:43;;;;;;;8.63;2.10;;;;;;;;;;5150510;27;20027;-71
2023/08/10 00:26:09;;;;;;;6.50;1.67;;;;;;;;;;5150960;27;20023;-70
2023/08/10 00:28:35;;;;;;;8.95;1.88;;;;;;;;;;5150660;27;20102;-71
2023/08/10 00:31:01;;;;;;;5.13;1.70;;;;;;;;;;5150667;27;20458;-71
2023/08/10 00:33:27;;;;;;;6.15;1.77;;;;;;;;;;5150890;27;20031;-71
2023/08/10 00:35:53;;;;;;;4.38;1.40;;;;;;;;;;5150854;27;20518;-70
2023/08/10 00:38:19;;;;;;;6.30;1.90;;;;;;;;;;5150674;27;20065;-70
2023/08/10 00:40:45;;;;;;;3.65;1.40;;;;;;;;;;5150975;27;20038;-71
2023/08/10 00:43:11;;;;;;;7.70;2.35;;;;;;;;;;5150713;27;20019;-71
2023/08/10 00:45:38;;;;;;;5.75;1.45;;;;;;;;;;5150542;27;20023;-70
2023/08/10 00:48:05;;;;;;;5.53;1.73;;;;;;;;;;5154362;27;20099;-71
2023/08/10 00:50:31;;;;;;;12.55;2.45;;;;;;;;;;5155230;27;20022;-72
2023/08/10 00:52:57;;;;;;;5.32;1.70;;;;;;;;;;5154310;27;20075;-71
2023/08/10 00:55:23;;;;;;;9.00;2.17;;;;;;;;;;5154751;27;20022;-71
2023/08/10 00:57:49;;;;;;;6.55;1.60;;;;;;;;;;5154574;27;20023;-71
2023/08/10 01:00:15;;;;;;;5.07;1.63;;;;;;;;;;5154107;27;20042;-72
2023/08/10 01:02:41;;;;;;;4.63;1.80;;;;;;;;;;5154674;27;20034;-71
2023/08/10 01:05:11;;;;;;;6.47;1.92;;;;;;;;;;5155066;27;20063;-70
2023/08/10 01:07:49;;;;;;;5.60;1.67;;;;;;;;;;5155177;27;20031;-71
2023/08/10 01:10:34;;;;;;;6.88;2.15;;;;;;;;;;5154669;27;20031;-71
2023/08/10 01:13:05;;;;;;;7.13;1.85;;;;;;;;;;5154428;27;20080;-71
2023/08/10 01:15:46;;;;;;;6.95;2.00;;;;;;;;;;5154119;27;20476;-71
2023/08/10 01:18:15;;;;;;;6.80;1.70;;;;;;;;;;5154190;27;20106;-71
2023/08/10 01:20:43;;;;;;;5.90;1.75;;;;;;;;;;5154292;27;20066;-71
2023/08/10 01:23:19;;;;;;;7.28;2.10;;;;;;;;;;5154273;27;20109;-71
2023/08/10 01:25:46;;;;;;;8.40;2.33;;;;;;;;;;5153714;27;20076;-70
2023/08/10 01:28:13;;;;;;;10.63;2.13;;;;;;;;;;5153884;27;20477;-71
2023/08/10 01:30:39;;;;;;;4.82;1.90;;;;;;;;;;5152628;27;20468;-72
2023/08/10 01:33:06;;;;;;;5.88;1.90;;;;;;;;;;5153431;27;20083;-71
2023/08/10 01:35:32;;;;;;;7.00;1.95;;;;;;;;;;5153917;27;20031;-70
2023/08/10 01:37:58;;;;;;;7.93;2.20;;;;;;;;;;5153270;27;20075;-71
2023/08/10 01:40:24;;;;;;;5.28;1.75;;;;;;;;;;5153902;27;20042;-71
2023/08/10 01:42:49;;;;;;;6.50;1.55;;;;;;;;;;5152525;27;20034;-72
2023/08/10 01:45:15;;;;;;;3.88;2.03;;;;;;;;;;5153232;27;20044;-70
2023/08/10 01:47:56;;;;;;;4.53;1.58;;;;;;;;;;5153500;27;20455;-72
2023/08/10 01:50:24;;;;;;;6.55;1.60;;;;;;;;;;5153268;27;20019;-71
2023/08/10 01:52:55;;;;;;;3.35;1.45;;;;;;;;;;5153417;27;20097;-71
2023/08/10 01:55:21;;;;;;;4.80;1.63;;;;;;;;;;5153773;27;20109;-71
2023/08/10 01:57:47;;;;;;;5.13;1.52;;;;;;;;;;5152812;27;20076;-70
2023/08/10 02:00:13;;;;;;;6.18;1.50;;;;;;;;;;5153484;27;20043;-71
2023/08/10 02:02:40;;;;;;;8.88;2.22;;;;;;;;;;5153370;27;20106;-71
2023/08/10 02:05:06;;;;;;;7.90;1.73;;;;;;;;;;5153137;27;20061;-71
2023/08/10 02:07:32;;;;;;;8.73;1.67;;;;;;;;;;5153094;27;20023;-71
2023/08/10 02:09:59;;;;;;;3.83;1.55;;;;;;;;;;5152990;27;20084;-71
2023/08/10 02:12:25;;;;;;;7.35;1.70;;;;;;;;;;5153350;27;20464;-72
2023/08/10 02:14:51;;;;;;;5.28;1.77;;;;;;;;;;5153412;27;20019;-71
2023/08/10 02:17:17;;;;;;;4.20;1.65;;;;;;;;;;5152655;27;20138;-72
2023/08/10 02:19:43;;;;;;;5.53;1.67;;;;;;;;;;5153281;27;20035;-72
2023/08/10 02:22:09;;;;;;;4.55;1.67;;;;;;;;;;5151618;27;20029;-70
2023/08/10 02:24:35;;;;;;;7.03;1.70;;;;;;;;;;5153026;27;20070;-71
2023/08/10 02:27:03;;;;;;;9.18;2.60;;;;;;;;;;5153065;27;20499;-71
2023/08/10 02:29:29;;;;;;;7.75;1.83;;;;;;;;;;5152944;27;20678;-72
2023/08/10 02:31:55;;;;;;;5.95;1.42;;;;;;;;;;5152367;27;20023;-72
2023/08/10 02:34:21;;;;;;;6.25;1.67;;;;;;;;;;5152943;27;20023;-72
2023/08/10 02:36:47;;;;;;;5.55;1.60;;;;;;;;;;5152460;27;20069;-71
2023/08/10 02:39:13;;;;;;;3.53;1.60;;;;;;;;;;5152165;27;20142;-71
2023/08/10 02:41:39;;;;;;;4.85;1.60;;;;;;;;;;5152725;27;20026;-71
2023/08/10 02:44:05;;;;;;;5.88;1.60;;;;;;;;;;5152330;27;20027;-72
2023/08/10 02:46:31;;;;;;;5.30;1.60;;;;;;;;;;5152593;27;20381;-71
2023/08/10 02:48:58;;;;;;;4.18;1.85;;;;;;;;;;5152603;27;20057;-71
2023/08/10 02:51:24;;;;;;;5.30;1.50;;;;;;;;;;5152252;27;20034;-71
2023/08/10 02:53:50;;;;;;;4.95;1.83;;;;;;;;;;5152087;27;20035;-71
2023/08/10 02:56:16;;;;;;;5.15;1.70;;;;;;;;;;5152356;27;20099;-71
2023/08/10 02:58:42;;;;;;;5.70;1.75;;;;;;;;;;5152358;27;20031;-72
2023/08/10 03:01:08;;;;;;;4.55;1.35;;;;;;;;;;5152047;27;20034;-71
2023/08/10 03:03:34;;;;;;;7.35;2.42;;;;;;;;;;5150499;27;20110;-72
2023/08/10 03:06:00;;;;;;;6.57;1.67;;;;;;;;;;5152193;27;20023;-72
2023/08/10 03:08:26;;;;;;;7.25;1.88;;;;;;;;;;5151832;27;20079;-72
2023/08/10 03:10:52;;;;;;;7.85;2.13;;;;;;;;;;5149867;27;20827;-72
2023/08/10 03:13:18;;;;;;;4.30;1.55;;;;;;;;;;5152132;27;20037;-72
2023/08/10 03:15:44;;;;;;;6.20;1.50;;;;;;;;;;5151967;27;20420;-71
2023/08/10 03:18:10;;;;;;;4.10;1.35;;;;;;;;;;5151719;27;20023;-72
2023/08/10 03:20:36;;;;;;;5.40;1.50;;;;;;;;;;5151731;27;20049;-71
2023/08/10 03:23:02;;;;;;;4.97;1.38;;;;;;;;;;5152025;27;20019;-71
2023/08/10 03:25:29;;;;;;;5.50;1.88;;;;;;;;;;5152128;27;20022;-71
2023/08/10 03:27:55;;;;;;;4.18;1.40;;;;;;;;;;5151997;27;20026;-69
2023/08/10 03:30:21;;;;;;;5.63;1.42;;;;;;;;;;5151928;27;20101;-70
2023/08/10 03:32:47;;;;;;;5.55;1.98;;;;;;;;;;5151597;27;20025;-70
2023/08/10 03:35:14;;;;;;;4.30;1.50;;;;;;;;;;5150911;27;20035;-71
2023/08/10 03:37:40;;;;;;;5.40;1.70;;;;;;;;;;5151705;27;20019;-70
2023/08/10 03:40:07;;;;;;;5.13;1.27;;;;;;;;;;5150360;27;20507;-70
2023/08/10 03:42:33;;;;;;;6.75;2.10;;;;;;;;;;5151415;27;20054;-70
2023/08/10 03:45:00;;;;;;;6.00;1.48;;;;;;;;;;5151245;27;20055;-71
2023/08/10 03:47:25;;;;;;;4.82;1.83;;;;;;;;;;5150029;27;20467;-71
2023/08/10 03:49:51;;;;;;;8.18;1.60;;;;;;;;;;5151013;27;20105;-71
2023/08/10 03:52:17;;;;;;;7.55;2.13;;;;;;;;;;5150988;27;20023;-72
2023/08/10 03:54:43;;;;;;;5.63;1.75;;;;;;;;;;5151145;27;20054;-71
2023/08/10 03:57:09;;;;;;;8.32;1.52;;;;;;;;;;5151364;27;20023;-71
2023/08/10 03:59:35;;;;;;;4.20;1.42;;;;;;;;;;5151047;27;20499;-72
2023/08/10 04:02:01;;;;;;;6.57;1.70;;;;;;;;;;5151012;27;20054;-72
2023/08/10 04:04:27;;;;;;;7.18;2.03;;;;;;;;;;5150325;27;20465;-71
2023/08/10 04:06:53;;;;;;;7.55;2.00;;;;;;;;;;5150900;27;21245;-70
2023/08/10 04:09:19;;;;;;;6.43;1.70;;;;;;;;;;5151093;27;20015;-71
2023/08/10 04:11:45;;;;;;;6.07;1.83;;;;;;;;;;5150710;27;20040;-71
2023/08/10 04:14:11;;;;;;;6.93;1.65;;;;;;;;;;5151127;27;20444;-72
2023/08/10 04:16:37;;;;;;;6.53;2.13;;;;;;;;;;5151160;27;20084;-70
2023/08/10 04:19:03;;;;;;;6.85;2.05;;;;;;;;;;5150785;27;20039;-72
2023/08/10 04:21:29;;;;;;;11.30;2.97;;;;;;;;;;5150876;27;20027;-71
2023/08/10 04:23:55;;;;;;;4.85;1.67;;;;;;;;;;5150550;27;20141;-70
2023/08/10 04:26:21;;;;;;;7.38;2.13;;;;;;;;;;5150569;27;20053;-70
2023/08/10 04:28:47;;;;;;;6.53;2.13;;;;;;;;;;5150981;27;20019;-69
2023/08/10 04:31:14;;;;;;;3.25;1.90;;;;;;;;;;5150769;27;20041;-70
2023/08/10 04:33:40;;;;;;;7.85;2.70;;;;;;;;;;5150840;27;20014;-71
2023/08/10 04:36:07;;;;;;;7.95;3.03;;;;;;;;;;5150312;27;20037;-70
2023/08/10 04:38:34;;;;;;;7.10;3.25;;;;;;;;;;5150579;27;20027;-72
2023/08/10 04:41:00;;;;;;;9.73;2.90;;;;;;;;;;5150459;27;20039;-71
2023/08/10 04:43:26;;;;;;;8.30;4.18;;;;;;;;;;5150273;27;20408;-71
2023/08/10 04:45:52;;;;;;;8.40;3.55;;;;;;;;;;5129743;27;20023;-71
2023/08/10 04:48:18;;;;;;;5.82;3.22;;;;;;;;;;5129765;27;20217;-71
2023/08/10 04:50:44;;;;;;;6.18;3.00;;;;;;;;;;5129846;27;20176;-71
2023/08/10 04:53:10;;;;;;;7.95;3.85;;;;;;;;;;5130041;27;20027;-71
2023/08/10 04:55:36;;;;;;;9.68;4.60;;;;;;;;;;5129801;27;20102;-71
2023/08/10 04:58:02;;;;;;;8.95;4.63;;;;;;;;;;5129601;27;20385;-72
2023/08/10 05:00:28;;;;;;;7.90;3.47;;;;;;;;;;5129812;27;20039;-72
2023/08/10 05:02:54;;;;;;;10.52;4.05;;;;;;;;;;5129679;27;20020;-71
2023/08/10 05:05:20;;;;;;;8.05;3.60;;;;;;;;;;5129432;27;20015;-71
2023/08/10 05:07:46;;;;;;;6.95;3.67;;;;;;;;;;5129750;27;20045;-71
2023/08/10 05:10:13;;;;;;;8.65;3.65;;;;;;;;;;5132299;27;20356;-70
2023/08/10 05:12:39;;;;;;;9.93;4.30;;;;;;;;;;5149127;27;20456;-71
2023/08/10 05:15:05;;;;;;;10.63;4.03;;;;;;;;;;5150295;27;20080;-71
2023/08/10 05:17:31;;;;;;;7.25;3.65;;;;;;;;;;5150427;27;20042;-71
2023/08/10 05:19:57;;;;;;;6.90;3.40;;;;;;;;;;5150666;27;20492;-71
2023/08/10 05:22:24;;;;;;;11.10;4.00;;;;;;;;;;5149136;27;20031;-71
2023/08/10 05:24:50;;;;;;;8.55;4.03;;;;;;;;;;5150345;27;20029;-73
2023/08/10 05:27:16;;;;;;;8.52;4.57;;;;;;;;;;5142816;27;20551;-70
2023/08/10 05:29:42;;;;;;;12.27;4.88;;;;;;;;;;5149132;27;20034;-71
2023/08/10 05:32:08;;;;;;;9.00;4.00;;;;;;;;;;5151094;27;20395;-72
2023/08/10 05:34:34;;;;;;;9.05;4.22;;;;;;;;;;5152284;27;20042;-70
2023/08/10 05:37:00;;;;;;;10.70;4.00;;;;;;;;;;5153874;27;20075;-71
2023/08/10 05:39:26;;;;;;;8.73;3.92;;;;;;;;;;5153608;27;20050;-71
2023/08/10 05:41:52;;;;;;;8.85;4.45;;;;;;;;;;5152882;27;20098;-72
2023/08/10 05:44:18;;;;;;;9.20;4.05;;;;;;;;;;5153479;27;20075;-72
2023/08/10 05:46:44;;;;;;;6.60;3.95;;;;;;;;;;5152855;27;20030;-72
2023/08/10 05:49:10;;;;;;;13.20;4.22;;;;;;;;;;5153843;27;20396;-71
2023/08/10 05:51:36;;;;;;;10.95;4.78;;;;;;;;;;5153636;27;20027;-71
2023/08/10 05:54:02;;;;;;;8.38;4.18;;;;;;;;;;5153296;27;20027;-72
2023/08/10 05:56:28;;;;;;;11.45;5.18;;;;;;;;;;5153998;27;20046;-70
2023/08/10 05:58:54;;;;;;;8.20;4.85;;;;;;;;;;5153210;27;20114;-72
2023/08/10 06:01:21;;;;;;;8.95;4.18;;;;;;;;;;5152710;27;20053;-72
2023/08/10 06:03:48;;;;;;;10.50;4.80;;;;;;;;;;5153454;27;20499;-73
2023/08/10 06:06:14;;;;;;;9.43;3.75;;;;;;;;;;5153533;27;20559;-72
2023/08/10 06:08:40;;;;;;;9.75;4.10;;;;;;;;;;5153697;27;20035;-72
2023/08/10 06:11:06;;;;;;;10.05;4.68;;;;;;;;;;5153291;27;20159;-72
2023/08/10 06:13:34;;;;;;;9.13;4.95;;;;;;;;;;5153681;27;20019;-72
2023/08/10 06:16:01;;;;;;;10.57;4.13;;;;;;;;;;5153316;27;20059;-70
2023/08/10 06:18:27;;;;;;;8.63;4.53;;;;;;;;;;5153136;27;20063;-71
2023/08/10 06:20:53;;;;;;;9.13;4.20;;;;;;;;;;5152633;27;20038;-71
2023/08/10 06:23:19;;;;;;;7.97;4.25;;;;;;;;;;5153900;27;20030;-72
2023/08/10 06:25:53;;;;;;;7.80;4.18;;;;;;;;;;5153578;27;20019;-72
2023/08/10 06:28:19;;;;;;;9.18;4.50;;;;;;;;;;5153076;27;20019;-71
2023/08/10 06:30:45;;;;;;;5.00;2.10;;;;;;;;;;5152894;27;20027;-72
2023/08/10 06:33:11;;;;;;;3.50;1.40;;;;;;;;;;5152631;27;20051;-71
2023/08/10 06:35:38;;;;;;;7.28;1.65;;;;;;;;;;5152960;27;20030;-72
2023/08/10 06:38:04;;;;;;;3.38;1.85;;;;;;;;;;5151895;27;20019;-73
2023/08/10 06:40:34;;;;;;;3.08;1.30;;;;;;;;;;5152204;27;20058;-72
2023/08/10 06:43:00;;;;;;;3.75;1.25;;;;;;;;;;5152367;27;20019;-71
2023/08/10 06:45:26;;;;;;;4.97;1.42;;;;;;;;;;5135912;27;20394;-71
2023/08/10 06:47:52;;;;;;;6.35;1.40;;;;;;;;;;5132269;27;20481;-72
2023/08/10 06:50:18;;;;;;;4.25;1.10;;;;;;;;;;5144985;27;20021;-72
2023/08/10 06:52:45;;;;;;;5.30;1.27;;;;;;;;;;5152533;27;20014;-71
2023/08/10 06:55:13;;;;;;;3.67;1.38;;;;;;;;;;5152530;27;20067;-71
2023/08/10 06:57:40;;;;;;;9.50;4.85;;;;;;;;;;5152517;27;20113;-71
2023/08/10 07:00:07;;;;;;;4.43;1.50;;;;;;;;;;5151738;27;20043;-72
2023/08/10 07:02:34;;;;;;;4.53;1.20;;;;;;;;;;5152476;27;20026;-72
2023/08/10 07:04:59;;;;;;;5.05;2.72;;;;;;;;;;5152108;27;20022;-72
2023/08/10 07:07:26;;;;;;;6.32;2.65;;;;;;;;;;5152204;27;20075;-72
2023/08/10 07:09:52;;;;;;;7.15;1.52;;;;;;;;;;5151494;27;20032;-72
2023/08/10 07:12:18;;;;;;;6.15;3.35;;;;;;;;;;5149234;27;20027;-72
2023/08/10 07:14:44;;;;;;;4.20;1.80;;;;;;;;;;5152304;27;20547;-73
2023/08/10 07:17:10;;;;;;;4.18;1.42;;;;;;;;;;5151857;27;20511;-72
2023/08/10 07:19:36;;;;;;;6.00;1.52;;;;;;;;;;5151667;27;20041;-73
2023/08/10 07:22:02;;;;;;;5.15;2.40;;;;;;;;;;5150653;27;20139;-71
2023/08/10 07:24:29;;;;;;;3.10;1.38;;;;;;;;;;5151783;27;20121;-72
2023/08/10 07:26:56;;;;;;;5.07;1.65;;;;;;;;;;5152027;27;20107;-73
2023/08/10 07:29:23;;;;;;;4.13;1.50;;;;;;;;;;5151962;27;20565;-71
2023/08/10 07:31:49;;;;;;;3.83;1.80;;;;;;;;;;5150903;27;20118;-73
2023/08/10 07:34:16;;;;;;;4.57;1.92;;;;;;;;;;5149575;27;20709;-71
2023/08/10 07:36:43;;;;;;;3.88;1.95;;;;;;;;;;5149787;27;20054;-72
2023/08/10 07:39:09;;;;;;;7.13;2.53;;;;;;;;;;5151206;27;20119;-72
2023/08/10 07:41:36;;;;;;;4.03;2.08;;;;;;;;;;5151857;27;20099;-74
2023/08/10 07:44:03;;;;;;;5.55;2.45;;;;;;;;;;5151489;27;20034;-72
2023/08/10 07:46:30;;;;;;;8.40;3.03;;;;;;;;;;5151343;27;20035;-74
2023/08/10 07:48:57;;;;;;;3.17;1.42;;;;;;;;;;5151262;27;20018;-72
2023/08/10 07:51:23;;;;;;;4.68;1.88;;;;;;;;;;5151376;27;20027;-74
2023/08/10 07:53:49;;;;;;;5.82;2.75;;;;;;;;;;5151273;27;20029;-73
2023/08/10 07:56:15;;;;;;;7.00;3.05;;;;;;;;;;5150665;27;20522;-72
2023/08/10 07:58:41;;;;;;;4.63;1.80;;;;;;;;;;5150423;27;20023;-71
2023/08/10 08:01:07;;;;;;;6.82;2.35;;;;;;;;;;5150493;27;20485;-73
2023/08/10 08:03:34;;;;;;;6.07;2.33;;;;;;;;;;5149360;27;20019;-74
2023/08/10 08:06:00;;;;;;;3.60;1.45;;;;;;;;;;5148813;27;20018;-73
2023/08/10 08:08:28;;;;;;;4.95;1.98;;;;;;;;;;5149289;27;20022;-73
2023/08/10 08:10:54;;;;;;;4.25;1.15;;;;;;;;;;5148554;27;20023;-73
2023/08/10 08:13:20;;;;;;;3.90;1.35;;;;;;;;;;5148097;27;20391;-72
2023/08/10 08:15:46;;;;;;;5.70;1.67;;;;;;;;;;5147607;27;20105;-74
2023/08/10 08:18:31;;;;;;;5.97;2.08;;;;;;;;;;5148637;27;20019;-73
2023/08/10 08:20:57;;;;;;;5.53;1.65;;;;;;;;;;5148114;27;20083;-73
2023/08/10 08:23:23;;;;;;;6.22;1.67;;;;;;;;;;5148939;27;20070;-73
2023/08/10 08:25:49;;;;;;;4.57;1.50;;;;;;;;;;5148187;27;20030;-72
2023/08/10 08:28:15;;;;;;;4.35;1.58;;;;;;;;;;5148716;27;20023;-73
2023/08/10 08:30:41;;;;;;;4.25;1.40;;;;;;;;;;5148694;27;20037;-73
2023/08/10 08:33:08;;;;;;;6.15;1.60;;;;;;;;;;5149334;27;20031;-73
2023/08/10 08:35:34;;;;;;;5.32;1.52;;;;;;;;;;5149916;27;20606;-72
2023/08/10 08:38:00;;;;;;;3.05;1.05;;;;;;;;;;5150511;27;20058;-73
2023/08/10 08:40:26;;;;;;;1.83;0.85;;;;;;;;;;5150817;27;20054;-72
2023/08/10 08:42:52;;;;;;;2.63;0.93;;;;;;;;;;5150559;27;20035;-72
2023/08/10 08:45:18;;;;;;;4.45;1.38;;;;;;;;;;5150271;27;20037;-72
2023/08/10 08:47:45;;;;;;;3.65;1.40;;;;;;;;;;5150897;27;20022;-73
2023/08/10 08:50:11;;;;;;;6.07;1.45;;;;;;;;;;5150224;27;20031;-75
2023/08/10 08:52:39;;;;;;;5.32;1.67;;;;;;;;;;5148836;27;20502;-75
2023/08/10 08:55:05;;;;;;;4.78;1.40;;;;;;;;;;5149035;27;20054;-78
2023/08/10 08:57:32;;;;;;;2.80;0.98;;;;;;;;;;5147243;27;20023;-74
2023/08/10 08:59:58;;;;;;;2.75;1.27;;;;;;;;;;5143227;27;20443;-74
2023/08/10 09:02:24;;;;;;;3.50;0.80;;;;;;;;;;5142556;27;20060;-72
2023/08/10 09:04:51;;;;;;;2.95;0.95;;;;;;;;;;5147526;27;20023;-72
2023/08/10 09:07:18;;;;;;;2.05;0.93;;;;;;;;;;5148771;27;20026;-72
2023/08/10 09:09:44;;;;;;;4.50;1.15;;;;;;;;;;5153424;27;20524;-73
2023/08/10 09:12:29;;;;;;;5.95;2.10;;;;;;;;;;5153096;27;20384;-73
2023/08/10 09:15:05;;;;;;;3.28;1.02;;;;;;;;;;5152452;27;20033;-73
2023/08/10 09:17:32;;;;;;;3.17;1.05;;;;;;;;;;5151757;27;20022;-73
2023/08/10 09:19:58;;;;;;;3.90;1.20;;;;;;;;;;5150811;27;20033;-74
2023/08/10 09:22:43;;;;;;;2.13;1.08;;;;;;;;;;5150352;27;20026;-72
2023/08/10 09:25:09;;;;;;;2.90;0.82;;;;;;;;;;5150300;27;20040;-74
2023/08/10 09:27:35;;;;;;;3.85;1.48;;;;;;;;;;5150789;27;20050;-77
2023/08/10 09:30:03;;;;;;;6.63;2.40;;;;;;;;;;5150637;27;20027;-72
2023/08/10 09:32:29;;;;;;;5.00;1.90;;;;;;;;;;5151180;27;20027;-74
2023/08/10 09:34:55;;;;;;;3.78;1.30;;;;;;;;;;5148970;27;20023;-73
2023/08/10 09:37:23;;;;;;;5.55;1.50;;;;;;;;;;5151142;27;20476;-74
2023/08/10 09:39:53;;;;;;;4.45;1.35;;;;;;;;;;5149027;27;20081;-73
2023/08/10 09:42:19;;;;;;;5.28;1.27;;;;;;;;;;5149556;27;20400;-73
2023/08/10 09:44:50;;;;;;;5.13;2.10;;;;;;;;;;5150864;27;20026;-74
2023/08/10 09:47:16;;;;;;;6.45;1.90;;;;;;;;;;5150418;27;20022;-73
2023/08/10 09:50:03;;;;;;;6.72;1.80;;;;;;;;;;5152009;27;20038;-73
2023/08/10 09:52:29;;;;;;;5.05;2.25;;;;;;;;;;5151190;27;20555;-72
2023/08/10 09:54:56;;;;;;;4.35;1.63;;;;;;;;;;5152065;27;20106;-75
2023/08/10 09:57:23;;;;;;;4.85;2.00;;;;;;;;;;5152729;27;20074;-75
2023/08/10 09:59:51;;;;;;;4.63;1.83;;;;;;;;;;5149778;27;20027;-75
2023/08/10 10:02:17;;;;;;;3.35;1.75;;;;;;;;;;5152487;27;20389;-71
2023/08/10 10:04:44;;;;;;;7.78;3.30;;;;;;;;;;5150701;27;20034;-73
2023/08/10 10:07:13;;;;;;;5.55;2.28;;;;;;;;;;5152164;27;20392;-75
2023/08/10 10:09:43;;;;;;;7.43;2.00;;;;;;;;;;5152350;27;20018;-72
2023/08/10 10:12:14;;;;;;;5.03;1.50;;;;;;;;;;5150351;27;20542;-72
2023/08/10 10:14:41;;;;;;;4.93;1.42;;;;;;;;;;5152218;27;20067;-69
2023/08/10 10:17:10;;;;;;;4.35;1.77;;;;;;;;;;5152487;27;20035;-72
2023/08/10 10:19:36;;;;;;;3.22;1.00;;;;;;;;;;5151205;27;20050;-70
2023/08/10 10:22:03;;;;;;;4.55;1.30;;;;;;;;;;5148281;27;20038;-70
2023/08/10 10:24:33;;;;;;;2.15;1.02;;;;;;;;;;5146222;27;20186;-72
2023/08/10 10:27:10;;;;;;;1.75;1.08;;;;;;;;;;5135498;27;20029;-71
2023/08/10 10:29:36;;;;;;;2.53;0.90;;;;;;;;;;5130892;27;20031;-71
2023/08/10 10:32:13;;;;;;;2.08;0.80;;;;;;;;;;5131198;27;20027;-71
2023/08/10 10:34:40;;;;;;;2.85;1.00;;;;;;;;;;5140181;27;20076;-71
2023/08/10 10:37:07;;;;;;;3.35;1.77;;;;;;;;;;5130675;27;20034;-71
2023/08/10 10:39:33;;;;;;;2.38;1.08;;;;;;;;;;5128779;27;20749;-72
2023/08/10 10:41:59;;;;;;;4.28;1.60;;;;;;;;;;5130888;27;20495;-71
2023/08/10 10:44:45;;;;;;;1.95;1.00;;;;;;;;;;5130962;27;20042;-72
2023/08/10 10:47:17;;;;;;;4.38;1.58;;;;;;;;;;5130240;27;20019;-73
2023/08/10 10:49:54;;;;;;;3.20;1.13;;;;;;;;;;5130557;27;20034;-72
2023/08/10 10:52:35;;;;;;;4.00;1.27;;;;;;;;;;5131148;27;20023;-73
2023/08/10 10:55:03;;;;;;;3.00;0.93;;;;;;;;;;5130886;27;20042;-73
2023/08/10 10:57:31;;;;;;;2.35;0.90;;;;;;;;;;5131054;27;20019;-73
2023/08/10 10:59:57;;;;;;;2.35;1.25;;;;;;;;;;5129975;27;20579;-73
2023/08/10 11:02:24;;;;;;;2.85;1.33;;;;;;;;;;5130906;27;20020;-75
2023/08/10 11:04:52;;;;;;;6.10;1.45;;;;;;;;;;5134669;27;20042;-77
2023/08/10 11:07:18;;;;;;;3.05;1.40;;;;;;;;;;5151662;27;20041;-76
2023/08/10 11:09:44;;;;;;;4.45;1.48;;;;;;;;;;5151892;27;20015;-76
2023/08/10 11:12:11;;;;;;;3.47;1.23;;;;;;;;;;5152112;27;20027;-77
2023/08/10 11:14:38;;;;;;;4.22;1.92;;;;;;;;;;5150752;27;20029;-76
2023/08/10 11:17:04;;;;;;;3.63;1.88;;;;;;;;;;5151983;27;20065;-78
2023/08/10 11:19:31;;;;;;;3.97;1.60;;;;;;;;;;5151508;27;20030;-77
2023/08/10 11:21:57;;;;;;;5.28;1.70;;;;;;;;;;5150619;27;20033;-78
2023/08/10 11:24:23;;;;;;;5.40;2.47;;;;;;;;;;5151115;27;20094;-77
2023/08/10 11:26:50;;;;;;;5.30;1.40;;;;;;;;;;5150809;27;20649;-79
2023/08/10 11:29:19;;;;;;;5.47;2.47;;;;;;;;;;5149565;27;20122;-77
2023/08/10 11:31:47;;;;;;;4.03;2.20;;;;;;;;;;5148963;27;20023;-77
2023/08/10 11:34:20;;;;;;;2.05;0.90;;;;;;;;;;5149866;27;20031;-76
2023/08/10 11:36:46;;;;;;;3.53;1.67;;;;;;;;;;5151290;27;20026;-76
2023/08/10 11:39:13;;;;;;;3.58;1.90;;;;;;;;;;5143474;27;20043;-78
2023/08/10 11:41:41;;;;;;;3.28;1.02;;;;;;;;;;5141488;27;20029;-79
2023/08/10 11:44:07;;;;;;;4.00;1.70;;;;;;;;;;5152254;27;20051;-77
2023/08/10 11:46:33;;;;;;;4.68;1.40;;;;;;;;;;5150854;27;20026;-78
2023/08/10 11:48:59;;;;;;;2.95;1.20;;;;;;;;;;5150622;27;20025;-78
2023/08/10 11:51:32;;;;;;;5.43;2.03;;;;;;;;;;5150346;27;20121;-79
2023/08/10 11:53:58;;;;;;;2.35;1.13;;;;;;;;;;5149106;27;20370;-79
2023/08/10 11:56:24;;;;;;;3.38;1.25;;;;;;;;;;5148376;27;20465;-80
2023/08/10 11:58:50;;;;;;;1.77;1.05;;;;;;;;;;5150410;27;20056;-76
2023/08/10 12:01:18;;;;;;;4.15;1.80;;;;;;;;;;5149846;27;20030;-77
2023/08/10 12:03:51;;;;;;;3.67;1.75;;;;;;;;;;5150319;27;20088;-77
2023/08/10 12:06:17;;;;;;;2.92;1.20;;;;;;;;;;5149901;27;20019;-75
2023/08/10 12:08:43;;;;;;;5.03;1.65;;;;;;;;;;5150249;27;20023;-79
2023/08/10 12:11:14;;;;;;;4.30;1.83;;;;;;;;;;5150026;27;20046;-76
2023/08/10 12:13:46;;;;;;;5.30;2.45;;;;;;;;;;5149727;27;20070;-77
2023/08/10 12:16:13;;;;;;;9.20;2.40;;;;;;;;;;5149169;27;20026;-77
2023/08/10 12:18:39;;;;;;;4.45;1.42;;;;;;;;;;5149075;27;20015;-80
2023/08/10 12:21:05;;;;;;;2.45;1.20;;;;;;;;;;5149776;27;20070;-80
2023/08/10 12:23:31;;;;;;;3.17;1.45;;;;;;;;;;5149221;27;20084;-76
2023/08/10 12:25:57;;;;;;;5.85;2.38;;;;;;;;;;5149653;27;20033;-77
2023/08/10 12:28:23;;;;;;;6.13;1.70;;;;;;;;;;5147733;27;20491;-77
2023/08/10 12:30:50;;;;;;;3.00;1.10;;;;;;;;;;5146251;27;20519;-77
2023/08/10 12:33:17;;;;;;;3.83;1.83;;;;;;;;;;5149134;27;20424;-80
2023/08/10 12:35:43;;;;;;;3.58;1.20;;;;;;;;;;5149181;27;20107;-78
2023/08/10 12:38:12;;;;;;;3.38;1.35;;;;;;;;;;5148072;27;20019;-75
2023/08/10 12:40:39;;;;;;;2.95;1.40;;;;;;;;;;5148874;27;20047;-78
2023/08/10 12:43:06;;;;;;;2.25;0.88;;;;;;;;;;5155950;27;20105;-78
2023/08/10 12:45:32;;;;;;;5.65;1.70;;;;;;;;;;5156959;27;20031;-78
2023/08/10 12:47:59;;;;;;;3.88;1.10;;;;;;;;;;5157672;27;20026;-80
2023/08/10 12:50:26;;;;;;;4.70;2.25;;;;;;;;;;5156282;27;20022;-79
2023/08/10 12:52:52;;;;;;;6.30;1.95;;;;;;;;;;5157756;27;20503;-78
2023/08/10 12:55:18;;;;;;;5.20;2.33;;;;;;;;;;5156192;27;20023;-81
2023/08/10 12:57:45;;;;;;;3.15;1.20;;;;;;;;;;5156620;27;20023;-78
2023/08/10 13:00:16;;;;;;;1.90;0.93;;;;;;;;;;5155170;27;20046;-79
2023/08/10 13:02:44;;;;;;;3.45;1.73;;;;;;;;;;5155532;27;20019;-79
2023/08/10 13:05:15;;;;;;;3.00;0.90;;;;;;;;;;5156656;27;20019;-78
2023/08/10 13:07:42;;;;;;;5.82;1.80;;;;;;;;;;5162660;27;20549;-79
2023/08/10 13:10:10;;;;;;;5.85;1.33;;;;;;;;;;5151886;27;20023;-80
2023/08/10 13:12:36;;;;;;;3.95;1.48;;;;;;;;;;5135751;27;20043;-78
2023/08/10 13:15:02;;;;;;;4.53;1.65;;;;;;;;;;5135172;27;20019;-78
2023/08/10 13:17:29;;;;;;;2.92;1.20;;;;;;;;;;5135452;27;20035;-78
2023/08/10 13:19:59;;;;;;;3.15;1.30;;;;;;;;;;5135460;27;20504;-76
2023/08/10 13:22:28;;;;;;;4.18;1.50;;;;;;;;;;5135768;27;20019;-79
2023/08/10 13:24:55;;;;;;;5.57;1.93;;;;;;;;;;5135428;27;20023;-77
2023/08/10 13:27:22;;;;;;;4.70;1.70;;;;;;;;;;5135381;27;20307;-78
2023/08/10 13:29:48;;;;;;;4.15;1.50;;;;;;;;;;5135496;27;20031;-79
2023/08/10 13:32:14;;;;;;;1.95;1.00;;;;;;;;;;5135295;27;20027;-81
2023/08/10 13:34:40;;;;;;;3.03;1.08;;;;;;;;;;5145602;27;20133;-79
2023/08/10 13:37:07;;;;;;;4.22;1.67;;;;;;;;;;5157038;27;20502;-80
2023/08/10 13:39:33;;;;;;;4.22;1.55;;;;;;;;;;5145890;27;20073;-78
2023/08/10 13:41:59;;;;;;;2.95;1.27;;;;;;;;;;5135253;27;20045;-79
2023/08/10 13:44:25;;;;;;;3.13;1.33;;;;;;;;;;5135676;27;20105;-78
2023/08/10 13:46:51;;;;;;;3.78;1.52;;;;;;;;;;5135337;27;20035;-77
2023/08/10 13:49:17;;;;;;;3.65;1.75;;;;;;;;;;5135739;27;20020;-79
2023/08/10 13:51:44;;;;;;;3.65;1.10;;;;;;;;;;5135232;27;20027;-77
2023/08/10 13:54:11;;;;;;;2.25;1.10;;;;;;;;;;5133126;27;20030;-78
2023/08/10 13:56:57;;;;;;;5.03;1.20;;;;;;;;;;5125038;27;20023;-78
2023/08/10 13:59:24;;;;;;;5.05;1.25;;;;;;;;;;5132196;27;20026;-78
2023/08/10 14:01:53;;;;;;;3.40;1.58;;;;;;;;;;5131332;27;20029;-79
2023/08/10 14:04:19;;;;;;;2.75;1.23;;;;;;;;;;5132443;27;20019;-78
2023/08/10 14:06:45;;;;;;;5.28;1.90;;;;;;;;;;5131997;27;20015;-79
2023/08/10 14:09:11;;;;;;;3.25;1.40;;;;;;;;;;5130753;27;20583;-80
2023/08/10 14:11:38;;;;;;;3.38;0.90;;;;;;;;;;5132037;27;20027;-79
2023/08/10 14:14:04;;;;;;;4.85;1.85;;;;;;;;;;5131408;27;20028;-78
2023/08/10 14:16:30;;;;;;;2.53;1.17;;;;;;;;;;5131585;27;20064;-77
2023/08/10 14:18:56;;;;;;;5.07;1.83;;;;;;;;;;5131175;27;20302;-78
2023/08/10 14:21:22;;;;;;;4.50;1.85;;;;;;;;;;5131633;27;20035;-81
2023/08/10 14:23:48;;;;;;;2.42;1.30;;;;;;;;;;5131963;27;20030;-78
2023/08/10 14:26:14;;;;;;;4.10;1.20;;;;;;;;;;5131573;27;20051;-77
2023/08/10 14:28:43;;;;;;;4.20;1.52;;;;;;;;;;5131108;27;20106;-77
2023/08/10 14:31:10;;;;;;;3.05;1.23;;;;;;;;;;5132286;27;20023;-78
2023/08/10 14:33:36;;;;;;;3.40;1.85;;;;;;;;;;5132336;27;20080;-77
2023/08/10 14:36:03;;;;;;;4.72;1.20;;;;;;;;;;5131682;27;20031;-80
2023/08/10 14:38:29;;;;;;;6.47;2.13;;;;;;;;;;5132893;27;20087;-77
2023/08/10 14:40:55;;;;;;;5.20;2.25;;;;;;;;;;5152695;27;20039;-78
2023/08/10 14:43:21;;;;;;;3.60;1.40;;;;;;;;;;5156268;27;20031;-79